createdAt,value
2017-05-13T00:00:07.532Z,17.54
2017-05-13T00:00:20.143Z,17.52
2017-05-13T00:00:33.309Z,17.49
2017-05-13T00:00:46.576Z,17.46
2017-05-13T00:00:59.707Z,17.58
2017-05-13T00:01:12.338Z,17.54
2017-05-13T00:01:24.471Z,17.46
2017-05-13T00:01:37.457Z,17.5
2017-05-13T00:01:50.616Z,17.45
2017-05-13T00:02:03.248Z,17.45
2017-05-13T00:02:15.362Z,17.4
2017-05-13T00:02:28.505Z,17.35
2017-05-13T00:02:41.702Z,17.35
2017-05-13T00:02:54.390Z,17.32
2017-05-13T00:03:07.557Z,17.32
2017-05-13T00:03:20.713Z,17.4
2017-05-13T00:03:33.923Z,17.39
2017-05-13T00:03:47.139Z,17.35
2017-05-13T00:04:00.344Z,17.4
2017-05-13T00:04:12.991Z,17.39
2017-05-13T00:04:25.605Z,17.31
2017-05-13T00:04:38.215Z,17.28
2017-05-13T00:04:51.418Z,17.24
2017-05-13T00:05:05.368Z,17.22
2017-05-13T00:05:18.009Z,17.27
2017-05-13T00:05:31.201Z,17.25
2017-05-13T00:05:44.364Z,17.28
2017-05-13T00:05:57.505Z,17.28
2017-05-13T00:06:10.186Z,17.21
2017-05-13T00:06:23.358Z,17.27
2017-05-13T00:06:36.448Z,17.2
2017-05-13T00:06:49.635Z,17.21
2017-05-13T00:07:02.792Z,17.22
2017-05-13T00:07:14.965Z,17.21
2017-05-13T00:07:28.166Z,17.21
2017-05-13T00:07:41.354Z,17.13
2017-05-13T00:07:53.986Z,17.2
2017-05-13T00:08:07.139Z,17.17
2017-05-13T00:08:20.353Z,17.18
2017-05-13T00:08:33.534Z,17.13
2017-05-13T00:08:46.747Z,17.06
2017-05-13T00:08:58.918Z,17.07
2017-05-13T00:09:11.586Z,17.06
2017-05-13T00:09:24.819Z,17.09
2017-05-13T00:09:38.202Z,17.12
2017-05-13T00:09:50.822Z,17.07
2017-05-13T00:10:03.979Z,17.02
2017-05-13T00:10:17.163Z,17.12
2017-05-13T00:10:30.289Z,17.05
2017-05-13T00:10:43.545Z,17.02
2017-05-13T00:10:56.270Z,17.02
2017-05-13T00:11:09.430Z,17.17
2017-05-13T00:11:22.673Z,17.12
2017-05-13T00:11:35.835Z,17.05
2017-05-13T00:11:49.032Z,17.02
2017-05-13T00:12:02.240Z,17.02
2017-05-13T00:12:14.354Z,17.09
2017-05-13T00:12:27.551Z,17.07
2017-05-13T00:12:40.730Z,17.1
2017-05-13T00:12:53.822Z,17.02
2017-05-13T00:13:07.002Z,17.03
2017-05-13T00:13:19.730Z,17.06
2017-05-13T00:13:32.843Z,17.09
2017-05-13T00:13:45.996Z,17
2017-05-13T00:13:59.208Z,17.13
2017-05-13T00:14:12.372Z,17.09
2017-05-13T00:14:25.582Z,17.13
2017-05-13T00:14:38.669Z,16.99
2017-05-13T00:14:51.821Z,17.09
2017-05-13T00:15:04.996Z,17.05
2017-05-13T00:15:17.669Z,17.1
2017-05-13T00:15:30.329Z,17.17
2017-05-13T00:15:43.476Z,17.2
2017-05-13T00:15:56.657Z,17.25
2017-05-13T00:16:09.366Z,17.22
2017-05-13T00:16:22.601Z,17.22
2017-05-13T00:16:35.262Z,17.3
2017-05-13T00:16:48.602Z,17.25
2017-05-13T00:17:01.702Z,17.25
2017-05-13T00:17:14.281Z,17.25
2017-05-13T00:17:27.461Z,17.32
2017-05-13T00:17:40.605Z,17.31
2017-05-13T00:17:53.715Z,17.38
2017-05-13T00:18:06.840Z,17.32
2017-05-13T00:18:19.985Z,17.36
2017-05-13T00:18:32.629Z,17.27
2017-05-13T00:18:45.801Z,17.38
2017-05-13T00:18:58.505Z,17.35
2017-05-13T00:19:11.165Z,17.21
2017-05-13T00:19:23.796Z,17.27
2017-05-13T00:19:36.981Z,17.24
2017-05-13T00:19:50.156Z,17.25
2017-05-13T00:20:03.370Z,17.22
2017-05-13T00:20:16.096Z,17.27
2017-05-13T00:20:29.223Z,17.22
2017-05-13T00:20:42.337Z,17.22
2017-05-13T00:20:55.514Z,17.13
2017-05-13T00:21:08.193Z,17.17
2017-05-13T00:21:21.358Z,17.18
2017-05-13T00:21:34.497Z,17.18
2017-05-13T00:21:47.671Z,17.17
2017-05-13T00:22:00.878Z,17.09
2017-05-13T00:22:13.005Z,17.1
2017-05-13T00:22:26.112Z,17.13
2017-05-13T00:22:39.255Z,17.02
2017-05-13T00:22:52.414Z,16.97
2017-05-13T00:23:05.055Z,17
2017-05-13T00:23:18.241Z,17
2017-05-13T00:23:31.350Z,16.99
2017-05-13T00:23:44.517Z,16.97
2017-05-13T00:23:57.171Z,16.97
2017-05-13T00:24:10.285Z,17
2017-05-13T00:24:23.372Z,16.97
2017-05-13T00:24:36.580Z,16.9
2017-05-13T00:24:49.781Z,16.85
2017-05-13T00:25:02.418Z,16.94
2017-05-13T00:25:15.595Z,16.88
2017-05-13T00:25:28.726Z,16.82
2017-05-13T00:25:41.351Z,16.9
2017-05-13T00:25:54.515Z,16.87
2017-05-13T00:26:06.672Z,16.84
2017-05-13T00:26:19.844Z,16.9
2017-05-13T00:26:32.447Z,16.73
2017-05-13T00:26:45.651Z,16.81
2017-05-13T00:26:58.538Z,16.73
2017-05-13T00:27:10.701Z,16.7
2017-05-13T00:27:23.310Z,16.81
2017-05-13T00:27:36.545Z,16.73
2017-05-13T00:27:49.710Z,16.77
2017-05-13T00:28:02.873Z,16.76
2017-05-13T00:28:15.499Z,16.73
2017-05-13T00:28:28.692Z,16.74
2017-05-13T00:28:41.360Z,16.7
2017-05-13T00:28:54.501Z,16.67
2017-05-13T00:29:07.706Z,16.73
2017-05-13T00:29:19.909Z,16.63
2017-05-13T00:29:33.077Z,16.72
2017-05-13T00:29:45.770Z,16.73
2017-05-13T00:29:58.927Z,16.72
2017-05-13T00:30:12.034Z,16.73
2017-05-13T00:30:24.654Z,16.69
2017-05-13T00:30:37.845Z,16.65
2017-05-13T00:30:50.594Z,16.69
2017-05-13T00:31:03.719Z,16.69
2017-05-13T00:31:16.374Z,16.62
2017-05-13T00:31:29.566Z,16.52
2017-05-13T00:31:42.791Z,16.51
2017-05-13T00:31:56.160Z,16.63
2017-05-13T00:32:09.314Z,16.58
2017-05-13T00:32:21.466Z,16.54
2017-05-13T00:32:34.619Z,16.55
2017-05-13T00:32:47.817Z,16.55
2017-05-13T00:33:01.015Z,16.69
2017-05-13T00:33:13.662Z,16.65
2017-05-13T00:33:26.267Z,16.58
2017-05-13T00:33:39.496Z,16.57
2017-05-13T00:33:52.630Z,16.58
2017-05-13T00:34:05.233Z,16.58
2017-05-13T00:34:17.876Z,16.54
2017-05-13T00:34:30.533Z,16.55
2017-05-13T00:34:43.636Z,16.69
2017-05-13T00:34:56.835Z,16.65
2017-05-13T00:35:09.460Z,16.67
2017-05-13T00:35:22.642Z,16.66
2017-05-13T00:35:35.305Z,16.66
2017-05-13T00:35:48.534Z,16.59
2017-05-13T00:36:01.715Z,16.62
2017-05-13T00:36:14.405Z,16.62
2017-05-13T00:36:26.582Z,16.67
2017-05-13T00:36:39.275Z,16.58
2017-05-13T00:36:52.050Z,16.66
2017-05-13T00:37:05.276Z,16.55
2017-05-13T00:37:17.884Z,16.58
2017-05-13T00:37:31.020Z,16.59
2017-05-13T00:37:44.167Z,16.69
2017-05-13T00:37:57.335Z,16.58
2017-05-13T00:38:09.993Z,16.65
2017-05-13T00:38:22.715Z,16.54
2017-05-13T00:38:35.408Z,16.66
2017-05-13T00:38:48.561Z,16.69
2017-05-13T00:39:01.750Z,16.63
2017-05-13T00:39:14.364Z,16.66
2017-05-13T00:39:27.579Z,16.54
2017-05-13T00:39:40.755Z,16.62
2017-05-13T00:39:53.964Z,16.55
2017-05-13T00:40:07.152Z,16.55
2017-05-13T00:40:20.331Z,16.58
2017-05-13T00:40:33.511Z,16.54
2017-05-13T00:40:46.641Z,16.57
2017-05-13T00:40:59.776Z,16.44
2017-05-13T00:41:12.428Z,16.45
2017-05-13T00:41:24.528Z,16.47
2017-05-13T00:41:37.665Z,16.44
2017-05-13T00:41:50.800Z,16.45
2017-05-13T00:42:03.941Z,16.39
2017-05-13T00:42:17.166Z,16.49
2017-05-13T00:42:30.387Z,16.47
2017-05-13T00:42:43.520Z,16.4
2017-05-13T00:42:56.674Z,16.52
2017-05-13T00:43:09.924Z,16.44
2017-05-13T00:43:23.093Z,16.44
2017-05-13T00:43:36.251Z,16.48
2017-05-13T00:43:48.929Z,16.44
2017-05-13T00:44:01.597Z,16.45
2017-05-13T00:44:13.780Z,16.49
2017-05-13T00:44:26.971Z,16.44
2017-05-13T00:44:40.161Z,16.47
2017-05-13T00:44:53.277Z,16.45
2017-05-13T00:45:05.872Z,16.44
2017-05-13T00:45:19.082Z,16.42
2017-05-13T00:45:32.184Z,16.4
2017-05-13T00:45:45.335Z,16.47
2017-05-13T00:45:58.008Z,16.4
2017-05-13T00:46:10.623Z,16.32
2017-05-13T00:46:23.264Z,16.4
2017-05-13T00:46:36.433Z,16.32
2017-05-13T00:46:49.592Z,16.29
2017-05-13T00:47:02.984Z,16.4
2017-05-13T00:47:15.142Z,16.34
2017-05-13T00:47:27.288Z,16.33
2017-05-13T00:47:40.463Z,16.32
2017-05-13T00:47:53.599Z,16.33
2017-05-13T00:48:06.801Z,16.42
2017-05-13T00:48:19.476Z,16.29
2017-05-13T00:48:32.616Z,16.34
2017-05-13T00:48:45.317Z,16.34
2017-05-13T00:48:58.418Z,16.3
2017-05-13T00:49:11.153Z,16.4
2017-05-13T00:49:24.330Z,16.34
2017-05-13T00:49:37.482Z,16.42
2017-05-13T00:49:50.631Z,16.39
2017-05-13T00:50:03.806Z,16.4
2017-05-13T00:50:16.974Z,16.39
2017-05-13T00:50:30.160Z,16.37
2017-05-13T00:50:42.765Z,16.37
2017-05-13T00:50:55.861Z,16.44
2017-05-13T00:51:09.012Z,16.4
2017-05-13T00:51:22.238Z,16.4
2017-05-13T00:51:35.361Z,16.44
2017-05-13T00:51:48.016Z,16.54
2017-05-13T00:52:01.170Z,16.39
2017-05-13T00:52:13.851Z,16.45
2017-05-13T00:52:26.512Z,16.49
2017-05-13T00:52:39.691Z,16.45
2017-05-13T00:52:52.370Z,16.47
2017-05-13T00:53:05.475Z,16.57
2017-05-13T00:53:18.173Z,16.57
2017-05-13T00:53:31.311Z,16.55
2017-05-13T00:53:44.493Z,16.55
2017-05-13T00:53:57.650Z,16.65
2017-05-13T00:54:10.280Z,16.63
2017-05-13T00:54:23.530Z,16.63
2017-05-13T00:54:36.633Z,16.65
2017-05-13T00:54:49.253Z,16.73
2017-05-13T00:55:02.428Z,16.77
2017-05-13T00:55:15.603Z,16.7
2017-05-13T00:55:28.276Z,16.69
2017-05-13T00:55:40.380Z,16.74
2017-05-13T00:55:53.550Z,16.77
2017-05-13T00:56:06.646Z,16.85
2017-05-13T00:56:18.815Z,16.82
2017-05-13T00:56:31.989Z,16.82
2017-05-13T00:56:44.662Z,16.87
2017-05-13T00:56:57.317Z,16.81
2017-05-13T00:57:10.505Z,16.84
2017-05-13T00:57:23.172Z,16.82
2017-05-13T00:57:35.297Z,16.77
2017-05-13T00:57:48.456Z,16.91
2017-05-13T00:58:01.667Z,16.87
2017-05-13T00:58:14.330Z,16.81
2017-05-13T00:58:27.460Z,16.73
2017-05-13T00:58:40.655Z,16.81
2017-05-13T00:58:53.307Z,16.73
2017-05-13T00:59:06.027Z,16.8
2017-05-13T00:59:18.642Z,16.67
2017-05-13T00:59:31.279Z,16.66
2017-05-13T00:59:44.494Z,16.66
2017-05-13T00:59:57.660Z,16.69
2017-05-13T01:00:10.342Z,16.65
2017-05-13T01:00:23.024Z,16.67
2017-05-13T01:00:36.185Z,16.7
2017-05-13T01:00:48.383Z,16.73
2017-05-13T01:01:01.514Z,16.69
2017-05-13T01:01:14.166Z,16.67
2017-05-13T01:01:27.350Z,16.67
2017-05-13T01:01:39.986Z,16.69
2017-05-13T01:01:53.156Z,16.62
2017-05-13T01:02:05.539Z,16.65
2017-05-13T01:02:18.233Z,16.66
2017-05-13T01:02:31.447Z,16.55
2017-05-13T01:02:44.601Z,16.55
2017-05-13T01:02:57.338Z,16.65
2017-05-13T01:03:10.519Z,16.57
2017-05-13T01:03:23.694Z,16.62
2017-05-13T01:03:36.870Z,16.55
2017-05-13T01:03:49.542Z,16.59
2017-05-13T01:04:02.784Z,16.57
2017-05-13T01:04:15.887Z,16.48
2017-05-13T01:04:28.535Z,16.48
2017-05-13T01:04:41.183Z,16.51
2017-05-13T01:04:54.401Z,16.47
2017-05-13T01:05:07.600Z,16.39
2017-05-13T01:05:19.734Z,16.54
2017-05-13T01:05:32.948Z,16.39
2017-05-13T01:05:46.062Z,16.44
2017-05-13T01:05:58.695Z,16.47
2017-05-13T01:06:11.878Z,16.37
2017-05-13T01:06:24.521Z,16.45
2017-05-13T01:06:37.623Z,16.37
2017-05-13T01:06:50.813Z,16.45
2017-05-13T01:07:03.995Z,16.52
2017-05-13T01:07:17.142Z,16.47
2017-05-13T01:07:30.319Z,16.4
2017-05-13T01:07:43.464Z,16.47
2017-05-13T01:07:56.643Z,16.45
2017-05-13T01:08:09.845Z,16.49
2017-05-13T01:08:22.494Z,16.39
2017-05-13T01:08:35.658Z,16.4
2017-05-13T01:08:48.750Z,16.44
2017-05-13T01:09:01.964Z,16.44
2017-05-13T01:09:14.157Z,16.4
2017-05-13T01:09:27.390Z,16.4
2017-05-13T01:09:40.571Z,16.42
2017-05-13T01:09:53.226Z,16.42
2017-05-13T01:10:06.374Z,16.45
2017-05-13T01:10:19.529Z,16.37
2017-05-13T01:10:32.711Z,16.37
2017-05-13T01:10:45.414Z,16.42
2017-05-13T01:10:58.551Z,16.34
2017-05-13T01:11:11.705Z,16.44
2017-05-13T01:11:24.387Z,16.37
2017-05-13T01:11:37.557Z,16.33
2017-05-13T01:11:50.736Z,16.36
2017-05-13T01:12:03.931Z,16.39
2017-05-13T01:12:17.133Z,16.32
2017-05-13T01:12:30.322Z,16.3
2017-05-13T01:12:43.518Z,16.29
2017-05-13T01:12:56.218Z,16.27
2017-05-13T01:13:09.409Z,16.34
2017-05-13T01:13:22.564Z,16.29
2017-05-13T01:13:35.734Z,16.29
2017-05-13T01:13:48.934Z,16.32
2017-05-13T01:14:01.566Z,16.3
2017-05-13T01:14:14.745Z,16.3
2017-05-13T01:14:27.717Z,16.26
2017-05-13T01:14:40.841Z,16.25
2017-05-13T01:14:53.955Z,16.27
2017-05-13T01:15:07.145Z,16.27
2017-05-13T01:15:19.806Z,16.3
2017-05-13T01:15:32.993Z,16.26
2017-05-13T01:15:45.612Z,16.32
2017-05-13T01:15:58.271Z,16.27
2017-05-13T01:16:11.480Z,16.22
2017-05-13T01:16:24.108Z,16.17
2017-05-13T01:16:37.331Z,16.32
2017-05-13T01:16:50.519Z,16.26
2017-05-13T01:17:03.682Z,16.22
2017-05-13T01:17:15.969Z,16.14
2017-05-13T01:17:29.163Z,16.14
2017-05-13T01:17:41.323Z,16.22
2017-05-13T01:17:54.561Z,16.21
2017-05-13T01:18:07.239Z,16.13
2017-05-13T01:18:19.933Z,16.21
2017-05-13T01:18:32.045Z,16.18
2017-05-13T01:18:44.698Z,16.18
2017-05-13T01:18:57.340Z,16.18
2017-05-13T01:19:09.979Z,16.17
2017-05-13T01:19:23.151Z,16.18
2017-05-13T01:19:35.812Z,16.18
2017-05-13T01:19:48.975Z,16.18
2017-05-13T01:20:02.184Z,16.17
2017-05-13T01:20:14.862Z,16.16
2017-05-13T01:20:27.550Z,16.22
2017-05-13T01:20:40.209Z,16.17
2017-05-13T01:20:53.330Z,16.13
2017-05-13T01:21:06.495Z,16.07
2017-05-13T01:21:19.644Z,16.14
2017-05-13T01:21:32.313Z,16.17
2017-05-13T01:21:45.007Z,16.1
2017-05-13T01:21:58.174Z,16.02
2017-05-13T01:22:10.850Z,16.02
2017-05-13T01:22:23.944Z,16.06
2017-05-13T01:22:37.100Z,16.07
2017-05-13T01:22:50.327Z,16.1
2017-05-13T01:23:03.496Z,16
2017-05-13T01:23:16.206Z,16.06
2017-05-13T01:23:29.336Z,16.04
2017-05-13T01:23:42.048Z,16
2017-05-13T01:23:55.238Z,16.02
2017-05-13T01:24:08.471Z,15.98
2017-05-13T01:24:21.669Z,16.06
2017-05-13T01:24:34.887Z,15.99
2017-05-13T01:24:48.085Z,15.99
2017-05-13T01:25:01.232Z,16.02
2017-05-13T01:25:13.923Z,16.08
2017-05-13T01:25:26.643Z,16.02
2017-05-13T01:25:39.307Z,16
2017-05-13T01:25:52.543Z,16.02
2017-05-13T01:26:05.142Z,16
2017-05-13T01:26:18.283Z,15.99
2017-05-13T01:26:31.446Z,15.99
2017-05-13T01:26:44.158Z,16.06
2017-05-13T01:26:57.340Z,15.98
2017-05-13T01:27:10.123Z,16.1
2017-05-13T01:27:23.282Z,16.06
2017-05-13T01:27:36.446Z,16.11
2017-05-13T01:27:49.640Z,16.16
2017-05-13T01:28:02.296Z,16.21
2017-05-13T01:28:15.408Z,16.25
2017-05-13T01:28:28.049Z,16.16
2017-05-13T01:28:41.228Z,16.14
2017-05-13T01:28:54.404Z,16.11
2017-05-13T01:29:07.573Z,16.18
2017-05-13T01:29:21.413Z,16.17
2017-05-13T01:29:34.548Z,16.17
2017-05-13T01:29:47.653Z,16.17
2017-05-13T01:30:00.387Z,16.14
2017-05-13T01:30:12.568Z,16.16
2017-05-13T01:30:25.724Z,16.14
2017-05-13T01:30:40.240Z,16.16
2017-05-13T01:30:52.911Z,16.16
2017-05-13T01:31:06.010Z,16.21
2017-05-13T01:31:19.127Z,16.17
2017-05-13T01:31:32.299Z,16.14
2017-05-13T01:31:45.492Z,16.13
2017-05-13T01:31:58.177Z,16.18
2017-05-13T01:32:11.348Z,16.16
2017-05-13T01:32:24.381Z,16.07
2017-05-13T01:32:37.516Z,16.13
2017-05-13T01:32:50.703Z,16.1
2017-05-13T01:33:03.967Z,16.08
2017-05-13T01:33:17.152Z,16.07
2017-05-13T01:33:29.773Z,16
2017-05-13T01:33:42.937Z,16
2017-05-13T01:33:56.224Z,16.04
2017-05-13T01:34:09.487Z,16.06
2017-05-13T01:34:22.170Z,16.06
2017-05-13T01:34:34.923Z,16
2017-05-13T01:34:48.125Z,16.07
2017-05-13T01:35:01.249Z,16.02
2017-05-13T01:35:14.416Z,16.06
2017-05-13T01:35:27.584Z,16.02
2017-05-13T01:35:40.738Z,16.06
2017-05-13T01:35:53.911Z,16
2017-05-13T01:36:07.065Z,15.95
2017-05-13T01:36:19.758Z,16
2017-05-13T01:36:32.461Z,16
2017-05-13T01:36:45.608Z,15.96
2017-05-13T01:36:58.240Z,16.02
2017-05-13T01:37:11.392Z,15.89
2017-05-13T01:37:24.619Z,15.88
2017-05-13T01:37:37.302Z,15.89
2017-05-13T01:37:50.440Z,15.83
2017-05-13T01:38:03.626Z,15.98
2017-05-13T01:38:16.217Z,15.89
2017-05-13T01:38:29.335Z,15.92
2017-05-13T01:38:42.486Z,15.84
2017-05-13T01:38:55.651Z,15.92
2017-05-13T01:39:08.348Z,15.86
2017-05-13T01:39:20.470Z,15.88
2017-05-13T01:39:33.693Z,15.8
2017-05-13T01:39:46.893Z,15.81
2017-05-13T01:40:00.055Z,15.86
2017-05-13T01:40:13.197Z,15.81
2017-05-13T01:40:25.404Z,15.83
2017-05-13T01:40:38.589Z,15.78
2017-05-13T01:40:51.232Z,15.78
2017-05-13T01:41:04.398Z,15.78
2017-05-13T01:41:17.053Z,15.84
2017-05-13T01:41:30.230Z,15.81
2017-05-13T01:41:43.393Z,15.78
2017-05-13T01:41:56.072Z,15.84
2017-05-13T01:42:09.237Z,15.7
2017-05-13T01:42:21.385Z,15.75
2017-05-13T01:42:34.531Z,15.83
2017-05-13T01:42:47.651Z,15.81
2017-05-13T01:43:00.894Z,15.77
2017-05-13T01:43:14.050Z,15.7
2017-05-13T01:43:27.127Z,15.8
2017-05-13T01:43:40.308Z,15.75
2017-05-13T01:43:53.409Z,15.7
2017-05-13T01:44:06.631Z,15.7
2017-05-13T01:44:18.752Z,15.74
2017-05-13T01:44:31.436Z,15.7
2017-05-13T01:44:44.658Z,15.83
2017-05-13T01:44:57.343Z,15.86
2017-05-13T01:45:10.000Z,15.83
2017-05-13T01:45:22.221Z,15.8
2017-05-13T01:45:35.355Z,15.77
2017-05-13T01:45:47.975Z,15.81
2017-05-13T01:46:01.163Z,15.75
2017-05-13T01:46:13.818Z,15.8
2017-05-13T01:46:27.073Z,15.8
2017-05-13T01:46:40.299Z,15.77
2017-05-13T01:46:53.450Z,15.78
2017-05-13T01:47:06.137Z,15.78
2017-05-13T01:47:18.813Z,15.8
2017-05-13T01:47:32.154Z,15.81
2017-05-13T01:47:44.790Z,15.77
2017-05-13T01:47:58.022Z,15.84
2017-05-13T01:48:11.203Z,15.86
2017-05-13T01:48:24.361Z,15.88
2017-05-13T01:48:37.510Z,15.92
2017-05-13T01:48:50.693Z,15.93
2017-05-13T01:49:03.336Z,15.89
2017-05-13T01:49:16.458Z,15.88
2017-05-13T01:49:29.655Z,15.95
2017-05-13T01:49:41.808Z,15.84
2017-05-13T01:49:54.928Z,15.89
2017-05-13T01:50:08.024Z,15.88
2017-05-13T01:50:20.655Z,16
2017-05-13T01:50:33.825Z,15.93
2017-05-13T01:50:46.977Z,15.92
2017-05-13T01:50:59.596Z,15.95
2017-05-13T01:51:12.789Z,15.99
2017-05-13T01:51:25.469Z,15.99
2017-05-13T01:51:38.695Z,15.98
2017-05-13T01:51:50.821Z,15.89
2017-05-13T01:52:03.537Z,15.89
2017-05-13T01:52:16.242Z,15.93
2017-05-13T01:52:29.397Z,15.92
2017-05-13T01:52:42.085Z,15.93
2017-05-13T01:52:55.273Z,15.96
2017-05-13T01:53:08.416Z,15.95
2017-05-13T01:53:21.132Z,15.89
2017-05-13T01:53:33.803Z,15.92
2017-05-13T01:53:46.954Z,15.91
2017-05-13T01:54:00.145Z,15.91
2017-05-13T01:54:12.321Z,15.88
2017-05-13T01:54:25.021Z,15.89
2017-05-13T01:54:37.698Z,15.89
2017-05-13T01:54:50.359Z,15.86
2017-05-13T01:55:03.574Z,15.91
2017-05-13T01:55:16.261Z,15.78
2017-05-13T01:55:29.441Z,15.88
2017-05-13T01:55:42.682Z,15.84
2017-05-13T01:55:55.870Z,15.88
2017-05-13T01:56:09.049Z,15.83
2017-05-13T01:56:22.199Z,15.83
2017-05-13T01:56:34.979Z,15.78
2017-05-13T01:56:48.055Z,15.77
2017-05-13T01:57:01.298Z,15.77
2017-05-13T01:57:14.525Z,15.81
2017-05-13T01:57:27.697Z,15.75
2017-05-13T01:57:40.385Z,15.78
2017-05-13T01:57:53.541Z,15.86
2017-05-13T01:58:06.702Z,15.77
2017-05-13T01:58:19.937Z,15.7
2017-05-13T01:58:33.126Z,15.7
2017-05-13T01:58:46.706Z,15.81
2017-05-13T01:58:59.872Z,15.6
2017-05-13T01:59:13.105Z,15.71
2017-05-13T01:59:26.305Z,15.77
2017-05-13T01:59:39.042Z,15.6
2017-05-13T01:59:52.283Z,15.7
2017-05-13T02:00:05.481Z,15.75
2017-05-13T02:00:18.663Z,15.73
2017-05-13T02:00:31.346Z,15.74
2017-05-13T02:00:44.540Z,15.73
2017-05-13T02:00:58.477Z,15.71
2017-05-13T02:01:11.715Z,15.73
2017-05-13T02:01:24.387Z,15.75
2017-05-13T02:01:37.554Z,15.7
2017-05-13T02:01:50.697Z,15.67
2017-05-13T02:02:02.867Z,15.68
2017-05-13T02:02:15.602Z,15.71
2017-05-13T02:02:28.980Z,15.78
2017-05-13T02:02:42.087Z,15.68
2017-05-13T02:02:55.265Z,15.77
2017-05-13T02:03:08.388Z,15.77
2017-05-13T02:03:21.077Z,15.75
2017-05-13T02:03:34.310Z,15.78
2017-05-13T02:03:47.520Z,15.78
2017-05-13T02:04:00.699Z,15.78
2017-05-13T02:04:12.869Z,15.75
2017-05-13T02:04:25.590Z,15.8
2017-05-13T02:04:38.712Z,15.81
2017-05-13T02:04:51.345Z,15.8
2017-05-13T02:05:04.551Z,15.83
2017-05-13T02:05:17.262Z,15.84
2017-05-13T02:05:30.458Z,15.91
2017-05-13T02:05:43.582Z,15.83
2017-05-13T02:05:56.808Z,15.95
2017-05-13T02:06:10.030Z,15.93
2017-05-13T02:06:22.703Z,15.86
2017-05-13T02:06:35.337Z,15.96
2017-05-13T02:06:48.450Z,15.98
2017-05-13T02:07:01.568Z,15.92
2017-05-13T02:07:14.210Z,15.92
2017-05-13T02:07:27.432Z,15.99
2017-05-13T02:07:40.542Z,15.95
2017-05-13T02:07:53.712Z,16.07
2017-05-13T02:08:06.318Z,16
2017-05-13T02:08:19.419Z,16.06
2017-05-13T02:08:32.590Z,16.06
2017-05-13T02:08:45.771Z,16.04
2017-05-13T02:08:58.936Z,16.07
2017-05-13T02:09:12.103Z,16.07
2017-05-13T02:09:24.748Z,16.06
2017-05-13T02:09:37.909Z,15.96
2017-05-13T02:09:51.056Z,16
2017-05-13T02:10:04.232Z,16.06
2017-05-13T02:10:17.397Z,16.04
2017-05-13T02:10:30.546Z,15.99
2017-05-13T02:10:43.655Z,15.96
2017-05-13T02:10:56.788Z,15.92
2017-05-13T02:11:09.943Z,15.96
2017-05-13T02:11:23.084Z,15.91
2017-05-13T02:11:36.276Z,15.93
2017-05-13T02:11:48.903Z,15.88
2017-05-13T02:12:02.098Z,15.93
2017-05-13T02:12:15.302Z,15.88
2017-05-13T02:12:27.487Z,15.88
2017-05-13T02:12:40.618Z,15.88
2017-05-13T02:12:53.287Z,15.88
2017-05-13T02:13:06.017Z,15.8
2017-05-13T02:13:19.247Z,15.86
2017-05-13T02:13:32.424Z,15.91
2017-05-13T02:13:45.664Z,15.83
2017-05-13T02:13:58.357Z,15.8
2017-05-13T02:14:11.578Z,15.8
2017-05-13T02:14:24.225Z,15.75
2017-05-13T02:14:37.383Z,15.81
2017-05-13T02:14:50.518Z,15.81
2017-05-13T02:15:03.668Z,15.75
2017-05-13T02:15:16.789Z,15.78
2017-05-13T02:15:29.169Z,15.73
2017-05-13T02:15:41.821Z,15.77
2017-05-13T02:15:54.527Z,15.65
2017-05-13T02:16:07.661Z,15.81
2017-05-13T02:16:20.317Z,15.74
2017-05-13T02:16:33.509Z,15.73
2017-05-13T02:16:46.676Z,15.68
2017-05-13T02:16:59.819Z,15.7
2017-05-13T02:17:12.942Z,15.68
2017-05-13T02:17:26.109Z,15.7
2017-05-13T02:17:39.521Z,15.78
2017-05-13T02:17:52.725Z,15.71
2017-05-13T02:18:05.407Z,15.71
2017-05-13T02:18:18.037Z,15.75
2017-05-13T02:18:31.253Z,15.75
2017-05-13T02:18:44.420Z,15.77
2017-05-13T02:18:57.578Z,15.71
2017-05-13T02:19:10.258Z,15.63
2017-05-13T02:19:23.426Z,15.78
2017-05-13T02:19:36.629Z,15.74
2017-05-13T02:19:49.805Z,15.67
2017-05-13T02:20:03.063Z,15.75
2017-05-13T02:20:15.812Z,15.73
2017-05-13T02:20:28.567Z,15.68
2017-05-13T02:20:41.827Z,15.71
2017-05-13T02:20:54.982Z,15.81
2017-05-13T02:21:08.140Z,15.73
2017-05-13T02:21:21.281Z,15.78
2017-05-13T02:21:34.429Z,15.8
2017-05-13T02:21:47.645Z,15.83
2017-05-13T02:22:00.332Z,15.86
2017-05-13T02:22:12.951Z,15.81
2017-05-13T02:22:26.123Z,15.91
2017-05-13T02:22:37.773Z,15.86
2017-05-13T02:22:50.412Z,15.86
2017-05-13T02:23:03.579Z,15.91
2017-05-13T02:23:16.787Z,15.86
2017-05-13T02:23:29.962Z,15.92
2017-05-13T02:23:43.112Z,15.84
2017-05-13T02:23:55.843Z,15.89
2017-05-13T02:24:08.543Z,15.84
2017-05-13T02:24:21.232Z,15.91
2017-05-13T02:24:34.434Z,15.92
2017-05-13T02:24:47.611Z,15.91
2017-05-13T02:25:00.774Z,15.91
2017-05-13T02:25:13.970Z,15.91
2017-05-13T02:25:26.633Z,15.88
2017-05-13T02:25:39.319Z,15.91
2017-05-13T02:25:52.011Z,15.84
2017-05-13T02:26:05.241Z,15.89
2017-05-13T02:26:17.870Z,15.86
2017-05-13T02:26:30.551Z,15.84
2017-05-13T02:26:43.214Z,15.86
2017-05-13T02:26:56.419Z,15.88
2017-05-13T02:27:09.626Z,15.91
2017-05-13T02:27:21.241Z,15.81
2017-05-13T02:27:34.485Z,15.88
2017-05-13T02:27:47.664Z,15.83
2017-05-13T02:28:00.849Z,15.81
2017-05-13T02:28:13.528Z,15.78
2017-05-13T02:28:27.229Z,15.78
2017-05-13T02:28:40.469Z,15.83
2017-05-13T02:28:53.583Z,15.84
2017-05-13T02:29:06.233Z,15.81
2017-05-13T02:29:20.080Z,15.75
2017-05-13T02:29:33.194Z,15.7
2017-05-13T02:29:46.439Z,15.75
2017-05-13T02:29:59.607Z,15.78
2017-05-13T02:30:11.256Z,15.7
2017-05-13T02:30:24.424Z,15.74
2017-05-13T02:30:37.657Z,15.67
2017-05-13T02:30:50.345Z,15.73
2017-05-13T02:31:03.494Z,15.62
2017-05-13T02:31:16.706Z,15.78
2017-05-13T02:31:29.420Z,15.7
2017-05-13T02:31:42.798Z,15.6
2017-05-13T02:31:55.466Z,15.67
2017-05-13T02:32:08.692Z,15.63
2017-05-13T02:32:21.348Z,15.58
2017-05-13T02:32:34.474Z,15.67
2017-05-13T02:32:47.862Z,15.6
2017-05-13T02:33:01.022Z,15.58
2017-05-13T02:33:13.222Z,15.58
2017-05-13T02:33:26.426Z,15.58
2017-05-13T02:33:39.120Z,15.58
2017-05-13T02:33:52.363Z,15.67
2017-05-13T02:34:05.010Z,15.53
2017-05-13T02:34:17.684Z,15.62
2017-05-13T02:34:30.847Z,15.62
2017-05-13T02:34:43.458Z,15.62
2017-05-13T02:34:56.112Z,15.56
2017-05-13T02:35:08.761Z,15.55
2017-05-13T02:35:20.887Z,15.53
2017-05-13T02:35:34.042Z,15.51
2017-05-13T02:35:47.218Z,15.56
2017-05-13T02:36:00.372Z,15.55
2017-05-13T02:36:13.039Z,15.47
2017-05-13T02:36:25.673Z,15.52
2017-05-13T02:36:38.769Z,15.51
2017-05-13T02:36:51.434Z,15.44
2017-05-13T02:37:04.569Z,15.49
2017-05-13T02:37:17.736Z,15.47
2017-05-13T02:37:30.445Z,15.55
2017-05-13T02:37:43.632Z,15.59
2017-05-13T02:37:56.614Z,15.53
2017-05-13T02:38:08.778Z,15.49
2017-05-13T02:38:20.887Z,15.58
2017-05-13T02:38:34.019Z,15.59
2017-05-13T02:38:47.158Z,15.52
2017-05-13T02:39:00.325Z,15.55
2017-05-13T02:39:13.535Z,15.53
2017-05-13T02:39:27.965Z,15.59
2017-05-13T02:39:41.178Z,15.63
2017-05-13T02:39:54.360Z,15.58
2017-05-13T02:40:07.471Z,15.53
2017-05-13T02:40:20.648Z,15.62
2017-05-13T02:40:33.875Z,15.53
2017-05-13T02:40:47.141Z,15.59
2017-05-13T02:41:00.374Z,15.53
2017-05-13T02:41:14.293Z,15.55
2017-05-13T02:41:26.970Z,15.56
2017-05-13T02:41:40.180Z,15.51
2017-05-13T02:41:53.389Z,15.59
2017-05-13T02:42:05.545Z,15.62
2017-05-13T02:42:18.212Z,15.6
2017-05-13T02:42:31.444Z,15.62
2017-05-13T02:42:44.631Z,15.63
2017-05-13T02:42:57.775Z,15.67
2017-05-13T02:43:12.278Z,15.62
2017-05-13T02:43:24.431Z,15.59
2017-05-13T02:43:37.628Z,15.67
2017-05-13T02:43:50.719Z,15.62
2017-05-13T02:44:03.883Z,15.65
2017-05-13T02:44:17.042Z,15.63
2017-05-13T02:44:30.198Z,15.59
2017-05-13T02:44:43.420Z,15.59
2017-05-13T02:44:56.580Z,15.63
2017-05-13T02:45:09.808Z,15.56
2017-05-13T02:45:22.984Z,15.67
2017-05-13T02:45:36.145Z,15.67
2017-05-13T02:45:49.242Z,15.6
2017-05-13T02:46:02.372Z,15.6
2017-05-13T02:46:15.568Z,15.63
2017-05-13T02:46:28.228Z,15.59
2017-05-13T02:46:40.894Z,15.6
2017-05-13T02:46:53.547Z,15.65
2017-05-13T02:47:06.749Z,15.62
2017-05-13T02:47:19.961Z,15.65
2017-05-13T02:47:33.069Z,15.56
2017-05-13T02:47:46.542Z,15.58
2017-05-13T02:48:00.462Z,15.49